Address 0x0874df8bc1886503e5091346fec03c1eeb2b8ee1

 
 
Txn Hash Method
Block
From
To
Value [Txn Fee]
0xd4d142bd74c98787a07da2eeea4f4fccb60e192f6054631d78543f896bca3c610x1de9c881285606362022-05-20 19:58:393 hrs 17 mins ago0x0874df8bc1886503e5091346fec03c1eeb2b8ee1OUT 0xa4399d9e52135ba39ac219ec3c328f90af270ef40 MATIC0.00122177747330.338137503
0x4ee423d088c5997cecdfbbf8b5bf5fc1f142c45905e6d4e065216dfcacdb11960x1de9c881285580662022-05-20 18:23:534 hrs 51 mins ago0x0874df8bc1886503e5091346fec03c1eeb2b8ee1OUT 0xf6ab3535f6bcd0403919276f3731dff200caf0b80 MATIC0.001300415078 32.280379248
0x3ac12c079bdad814dba486c757f8e7154617c2c714e14d98a6c03423b12bee7c0x1de9c881285503552022-05-20 13:47:579 hrs 27 mins ago0x0874df8bc1886503e5091346fec03c1eeb2b8ee1OUT 0xa4399d9e52135ba39ac219ec3c328f90af270ef40 MATIC0.00150272531
0x02a76c9a6fdc8eb71ab596c860ee1dccfe528897fc0f624fe6b1f1132ead19190x1de9c881285485982022-05-20 12:40:2610 hrs 35 mins ago0x0874df8bc1886503e5091346fec03c1eeb2b8ee1OUT 0xa4399d9e52135ba39ac219ec3c328f90af270ef40 MATIC0.00193856 40
0x1630ec51af4f4615d0a4f9f43642454afe125d810908e9605aa04b08b5621c5c0x1de9c881285442892022-05-20 10:03:3613 hrs 12 mins ago0x0874df8bc1886503e5091346fec03c1eeb2b8ee1OUT 0xe69a8e4df9bec4e76259704b748f5de074516a700 MATIC0.002666565 55
0x3a78eaaf9438449499ad68e66173a2386cdb480aaa21e0c845fc2fc5520ed93d0x1de9c881285438752022-05-20 9:47:1613 hrs 28 mins ago0x0874df8bc1886503e5091346fec03c1eeb2b8ee1OUT 0xf6ab3535f6bcd0403919276f3731dff200caf0b80 MATIC0.001231885086 30.579250017
0xda7ef08f164a1a75bdfa055ad8faaed26cfe718c89da71453f0f20c3668813950x1de9c881285424182022-05-20 8:52:1514 hrs 23 mins ago0x0874df8bc1886503e5091346fec03c1eeb2b8ee1OUT 0xf6ab3535f6bcd0403919276f3731dff200caf0b80 MATIC0.010758786 222
0xdbe5939e97282bf8ffd319f8252133fdce3b76ad0d77016266759c12a54b5dba0x1de9c881285402632022-05-20 7:33:4115 hrs 42 mins ago0x0874df8bc1886503e5091346fec03c1eeb2b8ee1OUT 0x7d9c6e2be54299e6b8c5b256b5d5d458e585b9130 MATIC0.00150334531
0x52e1c39b44e132b9f93dde2cc2ddd963faf11db0de21f6b6e72879205cbc59d90x1de9c881285381882022-05-20 6:17:5516 hrs 57 mins ago0x0874df8bc1886503e5091346fec03c1eeb2b8ee1OUT 0xf6ab3535f6bcd0403919276f3731dff200caf0b80 MATIC0.001812285 45
0xb136e54462c803999be874eac3959c577ceed46d68892c67317dd3a581f40db90x1de9c881285377722022-05-20 6:03:3017 hrs 12 mins ago0x0874df8bc1886503e5091346fec03c1eeb2b8ee1OUT 0x1890879c6d9f906d5240227b2c2ce9554865fd0a0 MATIC0.00150334531
0x01d7641e87cedd422ab5e658cc5ea2b71a9f6e88ca3a44ae9e51c06f328d4d050x1de9c881285342762022-05-20 4:02:5419 hrs 12 mins ago0x0874df8bc1886503e5091346fec03c1eeb2b8ee1OUT 0xf6ab3535f6bcd0403919276f3731dff200caf0b80 MATIC0.001556107463 32.084689971
0xd2e4e58221ebc3482c266d99c7dcf8689dbf0389040bd8a9aa577b83fe089c820x1de9c881285159902022-05-19 17:16:351 day 5 hrs ago0x0874df8bc1886503e5091346fec03c1eeb2b8ee1OUT 0xe69a8e4df9bec4e76259704b748f5de074516a700 MATIC0.003010034577 62.06384828
0x0fb3b43e2d71e0eefceb0932d34121f32768c24399f24d16c03961108dbec1cd0x1de9c881285096672022-05-19 13:32:141 day 9 hrs ago0x0874df8bc1886503e5091346fec03c1eeb2b8ee1OUT 0xa4399d9e52135ba39ac219ec3c328f90af270ef40 MATIC0.001365133363 33.89698714
0xaf7c5618c930afbc53ac1b1bebaabb13d9c423054ccd98e9629146efadad35100x1de9c881285063432022-05-19 11:35:461 day 11 hrs ago0x0874df8bc1886503e5091346fec03c1eeb2b8ee1OUT 0xa4399d9e52135ba39ac219ec3c328f90af270ef40 MATIC0.0025436775 52.5
0xd7a1845dfc38043fbec64801ff2e00ba72aeeec29159836e9ab410814d422dc50x1de9c881285023222022-05-19 9:04:071 day 14 hrs ago0x0874df8bc1886503e5091346fec03c1eeb2b8ee1OUT 0x7d9c6e2be54299e6b8c5b256b5d5d458e585b9130 MATIC0.00156549383232.29020735
0x2f8742f703c21b58b872993c17bd3617fc8cab215da02385c9f458df7f6144c80x1de9c881284943162022-05-19 4:11:211 day 19 hrs ago0x0874df8bc1886503e5091346fec03c1eeb2b8ee1OUT 0x7d9c6e2be54299e6b8c5b256b5d5d458e585b9130 MATIC0.001523100551 31.396366919
0xac832cb8aae14e0233637434234e1f8714135ddaa542d692d1a6da4e0faf60eb0x1de9c881284928422022-05-19 3:20:381 day 19 hrs ago0x0874df8bc1886503e5091346fec03c1eeb2b8ee1OUT 0x1890879c6d9f906d5240227b2c2ce9554865fd0a0 MATIC0.002214355
0x4e51d6f5a46e88e133c8742435dbe546c45db44eff3feb6ab184bf1b0eb453210x1de9c881284914282022-05-19 2:29:531 day 20 hrs ago0x0874df8bc1886503e5091346fec03c1eeb2b8ee1OUT 0xa4399d9e52135ba39ac219ec3c328f90af270ef40 MATIC0.012960714 267
0xb313542ed80de155e67c3aa3d2e2e2487589d07853fcdb7a127ac7353c684ce40x1de9c881284910442022-05-19 2:16:351 day 20 hrs ago0x0874df8bc1886503e5091346fec03c1eeb2b8ee1OUT 0xf6ab3535f6bcd0403919276f3731dff200caf0b80 MATIC0.002471613 51
0x13261ea277e1e7b23857ebc7b2298da62639176d4b4687f29da6cc079278143a0x1de9c881284902882022-05-19 1:48:271 day 21 hrs ago0x0874df8bc1886503e5091346fec03c1eeb2b8ee1OUT 0xa4399d9e52135ba39ac219ec3c328f90af270ef40 MATIC0.001749171846 36.083998904
0x7f69b71d51ba39f4cfc50cb2352f8444efc2094d3b6b89d8b88a777c280515650x1de9c881284875142022-05-19 0:10:431 day 23 hrs ago0x0874df8bc1886503e5091346fec03c1eeb2b8ee1OUT 0xa4399d9e52135ba39ac219ec3c328f90af270ef40 MATIC0.0033929 70
0xc3d2b95e20f87e6ab407c8f54f6102838af57b33d48389cb8ec6ee54d56332340x1de9c881284835292022-05-18 21:49:402 days 1 hr ago0x0874df8bc1886503e5091346fec03c1eeb2b8ee1OUT 0xa4399d9e52135ba39ac219ec3c328f90af270ef40 MATIC0.00169197 42
0x898e796f946e11a68986ab0dbe313e822bf2ba199fe36dcf731742ccaa3c435d0x1de9c881284809272022-05-18 20:17:262 days 2 hrs ago0x0874df8bc1886503e5091346fec03c1eeb2b8ee1OUT 0xa4399d9e52135ba39ac219ec3c328f90af270ef40 MATIC0.001470843071 30.096439031
0x4a7064ae7b3776e65c94814b520c49769001b2c65d3a257c76930516c9658a5b0x1de9c881284780142022-05-18 18:30:462 days 4 hrs ago0x0874df8bc1886503e5091346fec03c1eeb2b8ee1OUT 0xa4399d9e52135ba39ac219ec3c328f90af270ef40 MATIC0.0024280464 50.1
0x12fec1af2339e6bc1f5931204e76968bd2881d800365aac27983fd62706682db0x1de9c881284776972022-05-18 18:19:562 days 4 hrs ago0x0874df8bc1886503e5091346fec03c1eeb2b8ee1OUT 0xa4399d9e52135ba39ac219ec3c328f90af270ef40 MATIC0.001513277256 31.22605869
[ Download CSV Export 
Parent Txn Hash Block From To Value
Loading

Contract Name:
0 MATIC

Compiler Version
0

Optimization Enabled:
0 MATIC

Other Settings:
-NA-
Block Transaction Gas Used Reward
Age Block Fee Address BC Fee Address Voting Power Jailed Incoming
Block Uncle Number Difficulty Gas Used Reward
Loading
Loading
Make sure to use the "Vote Down" button for any spammy posts, and the "Vote Up" for interesting conversations.